sensor_id;sensor_type;location;lat;lon;timestamp;P1;durP1;ratioP1;P2;durP2;ratioP2
28910;SDS011;16028;42.642;23.310;2023-11-21T00:01:55;10.73;;;6.20;;
28910;SDS011;16028;42.642;23.310;2023-11-21T00:04:22;13.20;;;6.90;;
28910;SDS011;16028;42.642;23.310;2023-11-21T00:06:50;10.70;;;6.15;;
28910;SDS011;16028;42.642;23.310;2023-11-21T00:09:17;10.98;;;6.72;;
28910;SDS011;16028;42.642;23.310;2023-11-21T00:11:44;11.98;;;7.22;;
28910;SDS011;16028;42.642;23.310;2023-11-21T00:14:11;9.85;;;6.20;;
28910;SDS011;16028;42.642;23.310;2023-11-21T00:16:41;15.18;;;7.60;;
28910;SDS011;16028;42.642;23.310;2023-11-21T00:19:08;15.88;;;8.80;;
28910;SDS011;16028;42.642;23.310;2023-11-21T00:21:34;16.65;;;8.65;;
28910;SDS011;16028;42.642;23.310;2023-11-21T00:24:01;20.52;;;11.02;;
28910;SDS011;16028;42.642;23.310;2023-11-21T00:26:29;20.10;;;10.60;;
28910;SDS011;16028;42.642;23.310;2023-11-21T00:28:56;22.55;;;11.75;;
28910;SDS011;16028;42.642;23.310;2023-11-21T00:31:23;21.77;;;12.05;;
28910;SDS011;16028;42.642;23.310;2023-11-21T00:33:51;20.88;;;11.95;;
28910;SDS011;16028;42.642;23.310;2023-11-21T00:36:19;31.17;;;14.50;;
28910;SDS011;16028;42.642;23.310;2023-11-21T00:38:46;23.42;;;11.25;;
28910;SDS011;16028;42.642;23.310;2023-11-21T00:41:13;21.63;;;12.60;;
28910;SDS011;16028;42.642;23.310;2023-11-21T00:43:40;26.75;;;13.75;;
28910;SDS011;16028;42.642;23.310;2023-11-21T00:46:07;21.27;;;13.00;;
28910;SDS011;16028;42.642;23.310;2023-11-21T00:48:34;22.85;;;12.75;;
28910;SDS011;16028;42.642;23.310;2023-11-21T00:51:02;24.38;;;11.27;;
28910;SDS011;16028;42.642;23.310;2023-11-21T00:53:30;22.27;;;12.18;;
28910;SDS011;16028;42.642;23.310;2023-11-21T00:55:57;17.92;;;11.68;;
28910;SDS011;16028;42.642;23.310;2023-11-21T00:58:24;17.58;;;11.02;;
28910;SDS011;16028;42.642;23.310;2023-11-21T01:00:51;20.13;;;10.75;;
28910;SDS011;16028;42.642;23.310;2023-11-21T01:03:18;19.65;;;11.57;;
28910;SDS011;16028;42.642;23.310;2023-11-21T01:05:45;19.33;;;10.25;;
28910;SDS011;16028;42.642;23.310;2023-11-21T01:08:13;17.60;;;10.38;;
28910;SDS011;16028;42.642;23.310;2023-11-21T01:10:40;16.05;;;9.85;;
28910;SDS011;16028;42.642;23.310;2023-11-21T01:13:06;17.25;;;11.02;;
28910;SDS011;16028;42.642;23.310;2023-11-21T01:15:33;19.25;;;11.30;;
28910;SDS011;16028;42.642;23.310;2023-11-21T01:18:00;17.30;;;10.32;;
28910;SDS011;16028;42.642;23.310;2023-11-21T01:20:28;18.35;;;10.55;;
28910;SDS011;16028;42.642;23.310;2023-11-21T01:22:55;19.58;;;10.02;;
28910;SDS011;16028;42.642;23.310;2023-11-21T01:25:23;17.85;;;9.80;;
28910;SDS011;16028;42.642;23.310;2023-11-21T01:27:51;17.50;;;9.88;;
28910;SDS011;16028;42.642;23.310;2023-11-21T01:30:18;15.02;;;9.57;;
28910;SDS011;16028;42.642;23.310;2023-11-21T01:32:45;16.15;;;10.65;;
28910;SDS011;16028;42.642;23.310;2023-11-21T01:35:11;18.05;;;11.32;;
28910;SDS011;16028;42.642;23.310;2023-11-21T01:37:38;18.25;;;11.77;;
28910;SDS011;16028;42.642;23.310;2023-11-21T01:40:05;19.88;;;10.38;;
28910;SDS011;16028;42.642;23.310;2023-11-21T01:42:37;20.15;;;11.10;;
28910;SDS011;16028;42.642;23.310;2023-11-21T01:45:04;19.70;;;11.48;;
28910;SDS011;16028;42.642;23.310;2023-11-21T01:47:34;19.88;;;10.32;;
28910;SDS011;16028;42.642;23.310;2023-11-21T01:50:01;17.50;;;9.23;;
28910;SDS011;16028;42.642;23.310;2023-11-21T01:52:30;15.02;;;9.93;;
28910;SDS011;16028;42.642;23.310;2023-11-21T01:54:56;16.30;;;9.65;;
28910;SDS011;16028;42.642;23.310;2023-11-21T01:57:24;15.80;;;9.38;;
28910;SDS011;16028;42.642;23.310;2023-11-21T01:59:52;15.02;;;9.80;;
28910;SDS011;16028;42.642;23.310;2023-11-21T02:02:20;18.08;;;10.32;;
28910;SDS011;16028;42.642;23.310;2023-11-21T02:04:47;15.65;;;9.15;;
28910;SDS011;16028;42.642;23.310;2023-11-21T02:07:14;20.13;;;9.95;;
28910;SDS011;16028;42.642;23.310;2023-11-21T02:09:41;20.65;;;9.35;;
28910;SDS011;16028;42.642;23.310;2023-11-21T02:12:08;17.77;;;10.38;;
28910;SDS011;16028;42.642;23.310;2023-11-21T02:14:35;16.40;;;9.25;;
28910;SDS011;16028;42.642;23.310;2023-11-21T02:17:04;21.77;;;10.30;;
28910;SDS011;16028;42.642;23.310;2023-11-21T02:19:31;17.65;;;9.98;;
28910;SDS011;16028;42.642;23.310;2023-11-21T02:21:59;15.38;;;10.05;;
28910;SDS011;16028;42.642;23.310;2023-11-21T02:24:31;19.05;;;9.60;;
28910;SDS011;16028;42.642;23.310;2023-11-21T02:26:58;16.67;;;9.23;;
28910;SDS011;16028;42.642;23.310;2023-11-21T02:29:25;20.33;;;10.90;;
28910;SDS011;16028;42.642;23.310;2023-11-21T02:31:53;17.67;;;9.90;;
28910;SDS011;16028;42.642;23.310;2023-11-21T02:34:21;18.00;;;10.13;;
28910;SDS011;16028;42.642;23.310;2023-11-21T02:36:50;18.92;;;11.63;;
28910;SDS011;16028;42.642;23.310;2023-11-21T02:39:17;15.57;;;9.65;;
28910;SDS011;16028;42.642;23.310;2023-11-21T02:41:48;16.38;;;9.98;;
28910;SDS011;16028;42.642;23.310;2023-11-21T02:44:15;18.80;;;8.70;;
28910;SDS011;16028;42.642;23.310;2023-11-21T02:46:42;13.77;;;8.23;;
28910;SDS011;16028;42.642;23.310;2023-11-21T02:49:08;13.02;;;7.78;;
28910;SDS011;16028;42.642;23.310;2023-11-21T02:51:37;13.85;;;7.82;;
28910;SDS011;16028;42.642;23.310;2023-11-21T02:54:04;14.70;;;8.68;;
28910;SDS011;16028;42.642;23.310;2023-11-21T02:56:33;17.40;;;10.32;;
28910;SDS011;16028;42.642;23.310;2023-11-21T02:59:01;20.73;;;11.13;;
28910;SDS011;16028;42.642;23.310;2023-11-21T03:01:31;21.63;;;11.18;;
28910;SDS011;16028;42.642;23.310;2023-11-21T03:03:58;21.42;;;12.20;;
28910;SDS011;16028;42.642;23.310;2023-11-21T03:06:25;31.20;;;14.55;;
28910;SDS011;16028;42.642;23.310;2023-11-21T03:08:51;25.55;;;12.50;;
28910;SDS011;16028;42.642;23.310;2023-11-21T03:11:18;26.55;;;11.63;;
28910;SDS011;16028;42.642;23.310;2023-11-21T03:13:45;25.67;;;11.77;;
28910;SDS011;16028;42.642;23.310;2023-11-21T03:16:14;24.20;;;11.02;;
28910;SDS011;16028;42.642;23.310;2023-11-21T03:18:42;17.70;;;9.55;;
28910;SDS011;16028;42.642;23.310;2023-11-21T03:21:09;14.93;;;8.48;;
28910;SDS011;16028;42.642;23.310;2023-11-21T03:23:36;15.45;;;8.13;;
28910;SDS011;16028;42.642;23.310;2023-11-21T03:26:03;15.00;;;7.65;;
28910;SDS011;16028;42.642;23.310;2023-11-21T03:28:31;12.90;;;6.85;;
28910;SDS011;16028;42.642;23.310;2023-11-21T03:30:57;11.05;;;7.07;;
28910;SDS011;16028;42.642;23.310;2023-11-21T03:33:26;11.20;;;6.20;;
28910;SDS011;16028;42.642;23.310;2023-11-21T03:35:52;10.70;;;7.32;;
28910;SDS011;16028;42.642;23.310;2023-11-21T03:38:19;15.15;;;7.78;;
28910;SDS011;16028;42.642;23.310;2023-11-21T03:40:46;12.95;;;7.22;;
28910;SDS011;16028;42.642;23.310;2023-11-21T03:43:13;14.35;;;7.05;;
28910;SDS011;16028;42.642;23.310;2023-11-21T03:45:40;10.75;;;6.75;;
28910;SDS011;16028;42.642;23.310;2023-11-21T03:48:06;11.13;;;7.38;;
28910;SDS011;16028;42.642;23.310;2023-11-21T03:50:35;14.35;;;7.95;;
28910;SDS011;16028;42.642;23.310;2023-11-21T03:53:02;13.65;;;7.60;;
28910;SDS011;16028;42.642;23.310;2023-11-21T03:55:29;14.80;;;8.63;;
28910;SDS011;16028;42.642;23.310;2023-11-21T03:57:56;12.85;;;7.60;;
28910;SDS011;16028;42.642;23.310;2023-11-21T04:00:24;15.60;;;8.60;;
28910;SDS011;16028;42.642;23.310;2023-11-21T04:02:52;19.15;;;10.13;;
28910;SDS011;16028;42.642;23.310;2023-11-21T04:05:19;18.33;;;10.73;;
28910;SDS011;16028;42.642;23.310;2023-11-21T04:07:48;15.50;;;9.93;;
28910;SDS011;16028;42.642;23.310;2023-11-21T04:10:15;20.67;;;10.10;;
28910;SDS011;16028;42.642;23.310;2023-11-21T04:12:41;18.33;;;9.35;;
28910;SDS011;16028;42.642;23.310;2023-11-21T04:15:09;14.90;;;9.38;;
28910;SDS011;16028;42.642;23.310;2023-11-21T04:17:37;15.07;;;8.50;;
28910;SDS011;16028;42.642;23.310;2023-11-21T04:20:05;16.63;;;10.13;;
28910;SDS011;16028;42.642;23.310;2023-11-21T04:22:36;17.42;;;10.20;;
28910;SDS011;16028;42.642;23.310;2023-11-21T04:25:07;18.27;;;9.98;;
28910;SDS011;16028;42.642;23.310;2023-11-21T04:27:34;18.00;;;10.25;;
28910;SDS011;16028;42.642;23.310;2023-11-21T04:30:01;14.80;;;9.80;;
28910;SDS011;16028;42.642;23.310;2023-11-21T04:32:28;15.82;;;9.95;;
28910;SDS011;16028;42.642;23.310;2023-11-21T04:34:54;17.10;;;9.73;;
28910;SDS011;16028;42.642;23.310;2023-11-21T04:37:21;15.40;;;9.68;;
28910;SDS011;16028;42.642;23.310;2023-11-21T04:39:48;17.73;;;9.07;;
28910;SDS011;16028;42.642;23.310;2023-11-21T04:42:16;16.88;;;9.20;;
28910;SDS011;16028;42.642;23.310;2023-11-21T04:44:43;19.58;;;8.43;;
28910;SDS011;16028;42.642;23.310;2023-11-21T04:47:10;13.80;;;8.18;;
28910;SDS011;16028;42.642;23.310;2023-11-21T04:49:37;12.52;;;6.53;;
28910;SDS011;16028;42.642;23.310;2023-11-21T04:52:04;14.90;;;6.72;;
28910;SDS011;16028;42.642;23.310;2023-11-21T04:54:30;10.82;;;6.43;;
28910;SDS011;16028;42.642;23.310;2023-11-21T04:56:57;17.67;;;7.78;;
28910;SDS011;16028;42.642;23.310;2023-11-21T04:59:27;16.25;;;8.00;;
28910;SDS011;16028;42.642;23.310;2023-11-21T05:01:54;19.98;;;9.35;;
28910;SDS011;16028;42.642;23.310;2023-11-21T05:04:20;25.00;;;11.23;;
28910;SDS011;16028;42.642;23.310;2023-11-21T05:06:47;21.83;;;12.80;;
28910;SDS011;16028;42.642;23.310;2023-11-21T05:09:14;25.35;;;11.85;;
28910;SDS011;16028;42.642;23.310;2023-11-21T05:11:41;30.05;;;14.07;;
28910;SDS011;16028;42.642;23.310;2023-11-21T05:14:08;24.15;;;11.85;;
28910;SDS011;16028;42.642;23.310;2023-11-21T05:16:36;25.88;;;13.25;;
28910;SDS011;16028;42.642;23.310;2023-11-21T05:19:03;25.30;;;11.80;;
28910;SDS011;16028;42.642;23.310;2023-11-21T05:21:30;23.13;;;12.68;;
28910;SDS011;16028;42.642;23.310;2023-11-21T05:23:57;24.73;;;12.45;;
28910;SDS011;16028;42.642;23.310;2023-11-21T05:26:24;18.02;;;11.13;;
28910;SDS011;16028;42.642;23.310;2023-11-21T05:28:51;20.30;;;12.23;;
28910;SDS011;16028;42.642;23.310;2023-11-21T05:31:18;22.13;;;12.35;;
28910;SDS011;16028;42.642;23.310;2023-11-21T05:33:46;27.83;;;13.18;;
28910;SDS011;16028;42.642;23.310;2023-11-21T05:36:13;21.25;;;12.43;;
28910;SDS011;16028;42.642;23.310;2023-11-21T05:38:40;18.17;;;11.63;;
28910;SDS011;16028;42.642;23.310;2023-11-21T05:41:07;24.20;;;12.77;;
28910;SDS011;16028;42.642;23.310;2023-11-21T05:43:37;20.02;;;11.70;;
28910;SDS011;16028;42.642;23.310;2023-11-21T05:46:04;25.52;;;12.20;;
28910;SDS011;16028;42.642;23.310;2023-11-21T05:48:32;22.63;;;12.25;;
28910;SDS011;16028;42.642;23.310;2023-11-21T05:51:00;20.80;;;11.98;;
28910;SDS011;16028;42.642;23.310;2023-11-21T05:53:27;23.25;;;12.32;;
28910;SDS011;16028;42.642;23.310;2023-11-21T05:55:54;30.52;;;13.55;;
28910;SDS011;16028;42.642;23.310;2023-11-21T05:58:21;23.75;;;13.38;;
28910;SDS011;16028;42.642;23.310;2023-11-21T06:00:49;23.33;;;12.05;;
28910;SDS011;16028;42.642;23.310;2023-11-21T06:03:15;30.65;;;13.23;;
28910;SDS011;16028;42.642;23.310;2023-11-21T06:05:42;25.60;;;13.57;;
28910;SDS011;16028;42.642;23.310;2023-11-21T06:08:11;27.13;;;14.25;;
28910;SDS011;16028;42.642;23.310;2023-11-21T06:10:38;29.25;;;15.65;;
28910;SDS011;16028;42.642;23.310;2023-11-21T06:13:05;32.92;;;15.80;;
28910;SDS011;16028;42.642;23.310;2023-11-21T06:15:32;31.73;;;14.80;;
28910;SDS011;16028;42.642;23.310;2023-11-21T06:17:59;33.72;;;18.00;;
28910;SDS011;16028;42.642;23.310;2023-11-21T06:20:26;30.95;;;15.27;;
28910;SDS011;16028;42.642;23.310;2023-11-21T06:22:53;30.27;;;16.50;;
28910;SDS011;16028;42.642;23.310;2023-11-21T06:25:22;35.25;;;16.15;;
28910;SDS011;16028;42.642;23.310;2023-11-21T06:27:50;31.50;;;16.27;;
28910;SDS011;16028;42.642;23.310;2023-11-21T06:30:18;36.58;;;18.77;;
28910;SDS011;16028;42.642;23.310;2023-11-21T06:32:46;37.40;;;18.88;;
28910;SDS011;16028;42.642;23.310;2023-11-21T06:35:13;35.33;;;19.70;;
28910;SDS011;16028;42.642;23.310;2023-11-21T06:37:41;41.53;;;20.98;;
28910;SDS011;16028;42.642;23.310;2023-11-21T06:40:12;33.95;;;20.95;;
28910;SDS011;16028;42.642;23.310;2023-11-21T06:42:41;40.15;;;20.73;;
28910;SDS011;16028;42.642;23.310;2023-11-21T06:45:09;46.80;;;22.05;;
28910;SDS011;16028;42.642;23.310;2023-11-21T06:47:36;35.88;;;19.05;;
28910;SDS011;16028;42.642;23.310;2023-11-21T06:50:05;38.55;;;19.90;;
28910;SDS011;16028;42.642;23.310;2023-11-21T06:52:32;38.33;;;19.75;;
28910;SDS011;16028;42.642;23.310;2023-11-21T06:54:59;44.70;;;21.85;;
28910;SDS011;16028;42.642;23.310;2023-11-21T06:57:26;32.78;;;19.63;;
28910;SDS011;16028;42.642;23.310;2023-11-21T06:59:54;33.50;;;19.55;;
28910;SDS011;16028;42.642;23.310;2023-11-21T07:02:22;37.00;;;21.23;;
28910;SDS011;16028;42.642;23.310;2023-11-21T07:04:49;34.10;;;19.70;;
28910;SDS011;16028;42.642;23.310;2023-11-21T07:07:16;30.48;;;18.85;;
28910;SDS011;16028;42.642;23.310;2023-11-21T07:09:42;36.25;;;18.05;;
28910;SDS011;16028;42.642;23.310;2023-11-21T07:12:10;28.75;;;16.35;;
28910;SDS011;16028;42.642;23.310;2023-11-21T07:14:36;31.58;;;17.52;;
28910;SDS011;16028;42.642;23.310;2023-11-21T07:17:06;31.60;;;17.02;;
28910;SDS011;16028;42.642;23.310;2023-11-21T07:19:32;31.02;;;17.25;;
28910;SDS011;16028;42.642;23.310;2023-11-21T07:21:59;46.35;;;20.77;;
28910;SDS011;16028;42.642;23.310;2023-11-21T07:24:26;41.53;;;22.38;;
28910;SDS011;16028;42.642;23.310;2023-11-21T07:26:52;41.35;;;20.10;;
28910;SDS011;16028;42.642;23.310;2023-11-21T07:29:21;39.47;;;20.08;;
28910;SDS011;16028;42.642;23.310;2023-11-21T07:31:50;38.20;;;20.80;;
28910;SDS011;16028;42.642;23.310;2023-11-21T07:34:18;38.63;;;21.73;;
28910;SDS011;16028;42.642;23.310;2023-11-21T07:36:45;40.60;;;21.20;;
28910;SDS011;16028;42.642;23.310;2023-11-21T07:39:12;53.03;;;24.02;;
28910;SDS011;16028;42.642;23.310;2023-11-21T07:41:41;35.90;;;21.05;;
28910;SDS011;16028;42.642;23.310;2023-11-21T07:44:13;44.42;;;21.40;;
28910;SDS011;16028;42.642;23.310;2023-11-21T07:46:41;41.60;;;21.60;;
28910;SDS011;16028;42.642;23.310;2023-11-21T07:49:09;41.05;;;21.63;;
28910;SDS011;16028;42.642;23.310;2023-11-21T07:51:37;33.63;;;20.45;;
28910;SDS011;16028;42.642;23.310;2023-11-21T07:54:04;35.38;;;20.45;;
28910;SDS011;16028;42.642;23.310;2023-11-21T07:56:31;49.08;;;24.13;;
28910;SDS011;16028;42.642;23.310;2023-11-21T07:58:58;55.22;;;24.98;;
28910;SDS011;16028;42.642;23.310;2023-11-21T08:01:25;52.75;;;23.75;;
28910;SDS011;16028;42.642;23.310;2023-11-21T08:03:53;45.35;;;24.80;;
28910;SDS011;16028;42.642;23.310;2023-11-21T08:06:22;41.33;;;22.02;;
28910;SDS011;16028;42.642;23.310;2023-11-21T08:08:52;35.97;;;23.67;;
28910;SDS011;16028;42.642;23.310;2023-11-21T08:11:19;56.13;;;23.98;;
28910;SDS011;16028;42.642;23.310;2023-11-21T08:13:46;51.10;;;22.33;;
28910;SDS011;16028;42.642;23.310;2023-11-21T08:16:13;36.28;;;22.70;;
28910;SDS011;16028;42.642;23.310;2023-11-21T08:18:40;40.28;;;22.90;;
28910;SDS011;16028;42.642;23.310;2023-11-21T08:21:07;49.45;;;23.08;;
28910;SDS011;16028;42.642;23.310;2023-11-21T08:23:34;39.10;;;22.67;;
28910;SDS011;16028;42.642;23.310;2023-11-21T08:26:02;43.20;;;22.30;;
28910;SDS011;16028;42.642;23.310;2023-11-21T08:28:30;47.53;;;22.42;;
28910;SDS011;16028;42.642;23.310;2023-11-21T08:30:57;42.00;;;22.33;;
28910;SDS011;16028;42.642;23.310;2023-11-21T08:33:24;41.67;;;22.60;;
28910;SDS011;16028;42.642;23.310;2023-11-21T08:35:51;45.85;;;24.55;;
28910;SDS011;16028;42.642;23.310;2023-11-21T08:38:17;31.92;;;21.33;;
28910;SDS011;16028;42.642;23.310;2023-11-21T08:40:44;47.05;;;23.63;;
28910;SDS011;16028;42.642;23.310;2023-11-21T08:43:13;42.30;;;23.40;;
28910;SDS011;16028;42.642;23.310;2023-11-21T08:45:41;42.42;;;21.95;;
28910;SDS011;16028;42.642;23.310;2023-11-21T08:48:08;47.00;;;23.23;;
28910;SDS011;16028;42.642;23.310;2023-11-21T08:50:36;45.42;;;22.25;;
28910;SDS011;16028;42.642;23.310;2023-11-21T08:53:03;42.08;;;21.15;;
28910;SDS011;16028;42.642;23.310;2023-11-21T08:55:30;44.28;;;20.45;;
28910;SDS011;16028;42.642;23.310;2023-11-21T08:58:02;42.67;;;20.95;;
28910;SDS011;16028;42.642;23.310;2023-11-21T09:00:33;38.15;;;21.42;;
28910;SDS011;16028;42.642;23.310;2023-11-21T09:03:00;33.20;;;20.45;;
28910;SDS011;16028;42.642;23.310;2023-11-21T09:05:28;34.10;;;20.20;;
28910;SDS011;16028;42.642;23.310;2023-11-21T09:07:54;42.35;;;21.05;;
28910;SDS011;16028;42.642;23.310;2023-11-21T09:10:21;31.42;;;18.70;;
28910;SDS011;16028;42.642;23.310;2023-11-21T09:12:48;40.20;;;19.08;;
28910;SDS011;16028;42.642;23.310;2023-11-21T09:15:17;33.53;;;17.60;;
28910;SDS011;16028;42.642;23.310;2023-11-21T09:17:47;34.33;;;18.80;;
28910;SDS011;16028;42.642;23.310;2023-11-21T09:20:14;31.25;;;18.58;;
28910;SDS011;16028;42.642;23.310;2023-11-21T09:22:41;31.80;;;17.67;;
28910;SDS011;16028;42.642;23.310;2023-11-21T09:25:09;29.45;;;15.68;;
28910;SDS011;16028;42.642;23.310;2023-11-21T09:27:37;29.38;;;16.95;;
28910;SDS011;16028;42.642;23.310;2023-11-21T09:30:05;32.85;;;17.95;;
28910;SDS011;16028;42.642;23.310;2023-11-21T09:32:34;34.15;;;17.40;;
28910;SDS011;16028;42.642;23.310;2023-11-21T09:35:04;38.40;;;16.98;;
28910;SDS011;16028;42.642;23.310;2023-11-21T09:37:33;33.28;;;18.08;;
28910;SDS011;16028;42.642;23.310;2023-11-21T09:40:01;40.17;;;19.27;;
28910;SDS011;16028;42.642;23.310;2023-11-21T09:42:30;33.90;;;18.48;;
28910;SDS011;16028;42.642;23.310;2023-11-21T09:45:03;34.53;;;17.67;;
28910;SDS011;16028;42.642;23.310;2023-11-21T09:47:35;39.35;;;16.77;;
28910;SDS011;16028;42.642;23.310;2023-11-21T09:50:06;45.88;;;17.50;;
28910;SDS011;16028;42.642;23.310;2023-11-21T09:52:38;39.08;;;17.50;;
28910;SDS011;16028;42.642;23.310;2023-11-21T09:55:13;34.88;;;17.63;;
28910;SDS011;16028;42.642;23.310;2023-11-21T09:57:43;34.65;;;15.32;;
28910;SDS011;16028;42.642;23.310;2023-11-21T10:00:16;34.63;;;16.60;;
28910;SDS011;16028;42.642;23.310;2023-11-21T10:02:45;33.20;;;17.58;;
28910;SDS011;16028;42.642;23.310;2023-11-21T10:05:16;28.42;;;16.90;;
28910;SDS011;16028;42.642;23.310;2023-11-21T10:07:44;51.15;;;17.42;;
28910;SDS011;16028;42.642;23.310;2023-11-21T10:10:12;29.33;;;16.60;;
28910;SDS011;16028;42.642;23.310;2023-11-21T10:12:42;30.15;;;16.77;;
28910;SDS011;16028;42.642;23.310;2023-11-21T10:15:14;33.45;;;17.08;;
28910;SDS011;16028;42.642;23.310;2023-11-21T10:17:42;32.33;;;16.75;;
28910;SDS011;16028;42.642;23.310;2023-11-21T10:20:11;32.22;;;16.67;;
28910;SDS011;16028;42.642;23.310;2023-11-21T10:22:40;30.02;;;14.82;;
28910;SDS011;16028;42.642;23.310;2023-11-21T10:25:08;29.63;;;15.82;;
28910;SDS011;16028;42.642;23.310;2023-11-21T10:27:37;28.55;;;15.07;;
28910;SDS011;16028;42.642;23.310;2023-11-21T10:30:04;23.85;;;13.43;;
28910;SDS011;16028;42.642;23.310;2023-11-21T10:32:32;23.23;;;12.95;;
28910;SDS011;16028;42.642;23.310;2023-11-21T10:34:59;24.00;;;12.35;;
28910;SDS011;16028;42.642;23.310;2023-11-21T10:37:31;25.27;;;12.00;;
28910;SDS011;16028;42.642;23.310;2023-11-21T10:40:00;24.20;;;11.70;;
28910;SDS011;16028;42.642;23.310;2023-11-21T10:42:27;21.85;;;11.10;;
28910;SDS011;16028;42.642;23.310;2023-11-21T10:44:54;27.25;;;10.30;;
28910;SDS011;16028;42.642;23.310;2023-11-21T10:47:21;14.57;;;9.63;;
28910;SDS011;16028;42.642;23.310;2023-11-21T10:49:49;22.23;;;9.95;;
28910;SDS011;16028;42.642;23.310;2023-11-21T10:52:18;19.63;;;10.85;;
28910;SDS011;16028;42.642;23.310;2023-11-21T10:54:46;20.80;;;9.98;;
28910;SDS011;16028;42.642;23.310;2023-11-21T10:57:15;19.58;;;11.23;;
28910;SDS011;16028;42.642;23.310;2023-11-21T10:59:46;19.17;;;9.73;;
28910;SDS011;16028;42.642;23.310;2023-11-21T11:02:21;18.38;;;9.60;;
28910;SDS011;16028;42.642;23.310;2023-11-21T11:04:50;22.60;;;9.65;;
28910;SDS011;16028;42.642;23.310;2023-11-21T11:07:18;16.45;;;8.55;;
28910;SDS011;16028;42.642;23.310;2023-11-21T11:09:48;20.27;;;9.88;;
28910;SDS011;16028;42.642;23.310;2023-11-21T11:12:16;18.70;;;10.38;;
28910;SDS011;16028;42.642;23.310;2023-11-21T11:14:44;16.33;;;9.75;;
28910;SDS011;16028;42.642;23.310;2023-11-21T11:17:11;17.77;;;10.70;;
28910;SDS011;16028;42.642;23.310;2023-11-21T11:19:38;22.25;;;10.25;;
28910;SDS011;16028;42.642;23.310;2023-11-21T11:22:08;18.83;;;10.05;;
28910;SDS011;16028;42.642;23.310;2023-11-21T11:24:52;18.35;;;9.50;;
28910;SDS011;16028;42.642;23.310;2023-11-21T11:27:43;20.15;;;11.23;;
28910;SDS011;16028;42.642;23.310;2023-11-21T11:30:16;19.48;;;9.52;;
28910;SDS011;16028;42.642;23.310;2023-11-21T11:32:54;17.77;;;9.45;;
28910;SDS011;16028;42.642;23.310;2023-11-21T11:35:33;16.27;;;10.60;;
28910;SDS011;16028;42.642;23.310;2023-11-21T11:38:04;24.77;;;12.88;;
28910;SDS011;16028;42.642;23.310;2023-11-21T11:40:40;29.30;;;12.75;;
28910;SDS011;16028;42.642;23.310;2023-11-21T11:43:09;29.40;;;12.88;;
28910;SDS011;16028;42.642;23.310;2023-11-21T11:45:37;19.85;;;12.50;;
28910;SDS011;16028;42.642;23.310;2023-11-21T11:48:06;28.35;;;16.48;;
28910;SDS011;16028;42.642;23.310;2023-11-21T11:50:34;27.73;;;16.10;;
28910;SDS011;16028;42.642;23.310;2023-11-21T11:53:14;42.22;;;15.93;;
28910;SDS011;16028;42.642;23.310;2023-11-21T11:55:42;23.52;;;16.20;;
28910;SDS011;16028;42.642;23.310;2023-11-21T11:58:11;30.17;;;15.23;;
28910;SDS011;16028;42.642;23.310;2023-11-21T12:00:38;26.77;;;15.70;;
28910;SDS011;16028;42.642;23.310;2023-11-21T12:03:06;28.02;;;16.40;;
28910;SDS011;16028;42.642;23.310;2023-11-21T12:05:34;37.03;;;17.50;;
28910;SDS011;16028;42.642;23.310;2023-11-21T12:08:04;31.30;;;15.50;;
28910;SDS011;16028;42.642;23.310;2023-11-21T12:10:36;24.92;;;16.27;;
28910;SDS011;16028;42.642;23.310;2023-11-21T12:13:06;31.75;;;17.40;;
28910;SDS011;16028;42.642;23.310;2023-11-21T12:15:35;34.22;;;17.98;;
28910;SDS011;16028;42.642;23.310;2023-11-21T12:18:02;30.95;;;18.50;;
28910;SDS011;16028;42.642;23.310;2023-11-21T12:20:30;29.45;;;17.13;;
28910;SDS011;16028;42.642;23.310;2023-11-21T12:22:58;30.70;;;19.67;;
28910;SDS011;16028;42.642;23.310;2023-11-21T12:25:25;31.27;;;19.48;;
28910;SDS011;16028;42.642;23.310;2023-11-21T12:27:55;35.15;;;19.70;;
28910;SDS011;16028;42.642;23.310;2023-11-21T12:30:23;34.10;;;19.48;;
28910;SDS011;16028;42.642;23.310;2023-11-21T12:32:55;34.42;;;19.90;;
28910;SDS011;16028;42.642;23.310;2023-11-21T12:35:23;31.25;;;19.35;;
28910;SDS011;16028;42.642;23.310;2023-11-21T12:37:52;37.05;;;18.55;;
28910;SDS011;16028;42.642;23.310;2023-11-21T12:40:19;33.25;;;19.08;;
28910;SDS011;16028;42.642;23.310;2023-11-21T12:42:48;30.42;;;19.95;;
28910;SDS011;16028;42.642;23.310;2023-11-21T12:45:19;39.42;;;21.25;;
28910;SDS011;16028;42.642;23.310;2023-11-21T12:47:47;39.97;;;22.27;;
28910;SDS011;16028;42.642;23.310;2023-11-21T12:50:17;43.03;;;24.50;;
28910;SDS011;16028;42.642;23.310;2023-11-21T12:52:48;42.53;;;24.35;;
28910;SDS011;16028;42.642;23.310;2023-11-21T12:55:16;45.28;;;24.83;;
28910;SDS011;16028;42.642;23.310;2023-11-21T12:57:47;45.13;;;25.65;;
28910;SDS011;16028;42.642;23.310;2023-11-21T13:00:15;43.90;;;25.23;;
28910;SDS011;16028;42.642;23.310;2023-11-21T13:02:52;41.80;;;24.80;;
28910;SDS011;16028;42.642;23.310;2023-11-21T13:05:26;50.70;;;26.33;;
28910;SDS011;16028;42.642;23.310;2023-11-21T13:07:54;40.72;;;26.17;;
28910;SDS011;16028;42.642;23.310;2023-11-21T13:10:23;41.08;;;24.17;;
28910;SDS011;16028;42.642;23.310;2023-11-21T13:12:54;41.47;;;25.00;;
28910;SDS011;16028;42.642;23.310;2023-11-21T13:15:23;45.00;;;24.65;;
28910;SDS011;16028;42.642;23.310;2023-11-21T13:17:50;49.20;;;25.90;;
28910;SDS011;16028;42.642;23.310;2023-11-21T13:20:18;35.50;;;23.23;;
28910;SDS011;16028;42.642;23.310;2023-11-21T13:22:50;41.28;;;24.10;;
28910;SDS011;16028;42.642;23.310;2023-11-21T13:25:19;45.07;;;22.93;;
28910;SDS011;16028;42.642;23.310;2023-11-21T13:27:47;37.22;;;24.20;;
28910;SDS011;16028;42.642;23.310;2023-11-21T13:30:14;40.35;;;25.17;;
28910;SDS011;16028;42.642;23.310;2023-11-21T13:32:48;45.38;;;26.73;;
28910;SDS011;16028;42.642;23.310;2023-11-21T13:35:16;41.72;;;24.35;;
28910;SDS011;16028;42.642;23.310;2023-11-21T13:37:50;46.08;;;25.55;;
28910;SDS011;16028;42.642;23.310;2023-11-21T13:40:21;47.67;;;26.23;;
28910;SDS011;16028;42.642;23.310;2023-11-21T13:42:52;47.05;;;26.35;;
28910;SDS011;16028;42.642;23.310;2023-11-21T13:45:24;51.83;;;26.35;;
28910;SDS011;16028;42.642;23.310;2023-11-21T13:47:54;47.10;;;27.40;;
28910;SDS011;16028;42.642;23.310;2023-11-21T13:50:23;60.60;;;30.40;;
28910;SDS011;16028;42.642;23.310;2023-11-21T13:52:55;53.92;;;29.55;;
28910;SDS011;16028;42.642;23.310;2023-11-21T13:55:23;51.10;;;27.73;;
28910;SDS011;16028;42.642;23.310;2023-11-21T13:57:50;56.50;;;28.38;;
28910;SDS011;16028;42.642;23.310;2023-11-21T14:00:18;43.90;;;26.58;;
28910;SDS011;16028;42.642;23.310;2023-11-21T14:03:09;51.53;;;30.83;;
28910;SDS011;16028;42.642;23.310;2023-11-21T14:05:43;52.85;;;30.77;;
28910;SDS011;16028;42.642;23.310;2023-11-21T14:08:13;52.83;;;27.65;;
28910;SDS011;16028;42.642;23.310;2023-11-21T14:10:42;50.65;;;28.63;;
28910;SDS011;16028;42.642;23.310;2023-11-21T14:13:15;50.10;;;29.08;;
28910;SDS011;16028;42.642;23.310;2023-11-21T14:15:43;50.15;;;30.00;;
28910;SDS011;16028;42.642;23.310;2023-11-21T14:18:11;50.55;;;28.45;;